Time;durP1;ratioP1;P1;durP2;ratioP2;P2;SDS_P1;SDS_P2;PMS_P1;PMS_P2;Temp;Humidity;BMP_temperature;BMP_pressure;BME280_temperature;BME280_humidity;BME280_pressure;Samples;Min_cycle;Max_cycle;Signal;HPM_P1;HPM_P2
2023/09/22 00:00:16;;;;;;;;;;;;;;;27.03;44.30;99105.31;4274865;33;35178;-73
2023/09/22 00:02:46;;;;;;;;;;;;;;;27.22;43.70;99098.44;4275760;33;33095;-73
2023/09/22 00:05:14;;;;;;;;;;;;;;;27.56;43.06;99099.06;4275944;33;33686;-74
2023/09/22 00:07:42;;;;;;;;;;;;;;;27.39;43.50;99092.56;4280215;33;35239;-73
2023/09/22 00:10:12;;;;;;;;;;;;;;;27.44;43.32;99095.94;4263763;33;33848;-73
2023/09/22 00:12:40;;;;;;;;;;;;;;;27.32;43.88;99100.81;4273829;33;34471;-74
2023/09/22 00:15:09;;;;;;;;;;;;;;;27.84;42.62;99093.63;4279042;33;35051;-73
2023/09/22 00:17:36;;;;;;;;;;;;;;;27.94;42.36;99095.03;4278404;33;33908;-73
2023/09/22 00:20:08;;;;;;;;;;;;;;;27.42;43.53;99102.22;4273680;33;34268;-74
2023/09/22 00:22:35;;;;;;;;;;;;;;;26.78;44.93;99100.81;4274385;33;34160;-74
2023/09/22 00:25:03;;;;;;;;;;;;;;;27.11;44.20;99103.25;4276304;33;34732;-73
2023/09/22 00:27:31;;;;;;;;;;;;;;;27.20;43.56;99102.94;4275068;33;34331;-74
2023/09/22 00:29:59;;;;;;;;;;;;;;;26.88;44.57;99090.75;4275454;33;34456;-73
2023/09/22 00:32:26;;;;;;;;;;;;;;;26.09;46.45;99092.31;4280195;33;33109;-73
2023/09/22 00:34:54;;;;;;;;;;;;;;;26.56;45.28;99097.06;4271404;33;34882;-74
2023/09/22 00:37:22;;;;;;;;;;;;;;;27.12;44.13;99089.06;4280145;33;34037;-73
2023/09/22 00:39:50;;;;;;;;;;;;;;;27.31;43.74;99088.44;4265515;33;34477;-73
2023/09/22 00:42:17;;;;;;;;;;;;;;;27.04;44.31;99093.75;4267086;33;33574;-73
2023/09/22 00:44:45;;;;;;;;;;;;;;;27.61;43.03;99081.16;4270948;33;34079;-73
2023/09/22 00:47:15;;;;;;;;;;;;;;;27.86;42.55;99081.13;4282111;33;34229;-74
2023/09/22 00:49:43;;;;;;;;;;;;;;;27.72;42.75;99080.75;4255680;33;33433;-74
2023/09/22 00:52:10;;;;;;;;;;;;;;;27.07;44.30;99088.34;4263883;33;33696;-73
2023/09/22 00:54:38;;;;;;;;;;;;;;;27.38;43.71;99089.97;4284416;33;33954;-73
2023/09/22 00:57:05;;;;;;;;;;;;;;;27.25;44.27;99095.72;4274458;33;34037;-73
2023/09/22 00:59:33;;;;;;;;;;;;;;;26.37;46.23;99094.13;4276856;33;34631;-73
2023/09/22 01:02:00;;;;;;;;;;;;;;;25.72;47.98;99093.34;4277751;33;33242;-73
2023/09/22 01:04:28;;;;;;;;;;;;;;;26.43;46.50;99094.81;4278479;33;34335;-73
2023/09/22 01:06:56;;;;;;;;;;;;;;;26.58;46.04;99098.78;4262698;33;34771;-74
2023/09/22 01:09:24;;;;;;;;;;;;;;;26.40;46.62;99100.19;4255459;33;33569;-74
2023/09/22 01:11:52;;;;;;;;;;;;;;;26.17;46.82;99108.00;4270444;33;33696;-73
2023/09/22 01:14:20;;;;;;;;;;;;;;;25.92;47.35;99092.81;4283267;33;34207;-73
2023/09/22 01:16:50;;;;;;;;;;;;;;;25.97;47.21;99098.84;4278561;33;34675;-73
2023/09/22 01:19:19;;;;;;;;;;;;;;;26.03;47.04;99101.31;4282362;33;34267;-74
2023/09/22 01:21:49;;;;;;;;;;;;;;;26.66;45.91;99101.22;4274997;33;33686;-73
2023/09/22 01:24:16;;;;;;;;;;;;;;;27.15;44.80;99104.88;4281320;33;33083;-74
2023/09/22 01:26:44;;;;;;;;;;;;;;;27.18;44.78;99103.94;4282061;33;34180;-73
2023/09/22 01:29:11;;;;;;;;;;;;;;;26.44;46.68;99101.87;4271858;33;33948;-73
2023/09/22 01:31:42;;;;;;;;;;;;;;;26.66;46.36;99090.59;4274502;33;33548;-74
2023/09/22 01:34:10;;;;;;;;;;;;;;;26.68;46.03;99086.09;4261672;33;35250;-73
2023/09/22 01:36:38;;;;;;;;;;;;;;;27.19;44.94;99090.56;4271626;33;34871;-74
2023/09/22 01:39:08;;;;;;;;;;;;;;;26.72;46.19;99082.41;4272828;33;33985;-73
2023/09/22 01:41:36;;;;;;;;;;;;;;;26.48;46.89;99087.56;4260982;33;31592;-73
2023/09/22 01:44:03;;;;;;;;;;;;;;;26.66;46.04;99090.59;4271947;33;34241;-73
2023/09/22 01:46:31;;;;;;;;;;;;;;;26.06;47.70;99095.94;4266419;33;32579;-73
2023/09/22 01:48:58;;;;;;;;;;;;;;;26.16;47.50;99095.66;4278139;33;34118;-74
2023/09/22 01:51:26;;;;;;;;;;;;;;;26.41;46.75;99095.78;4282688;33;34278;-74
2023/09/22 01:53:55;;;;;;;;;;;;;;;26.81;45.90;99100.72;4265439;33;32056;-74
2023/09/22 01:56:24;;;;;;;;;;;;;;;25.99;47.97;99097.03;4278744;33;33998;-75
2023/09/22 01:58:51;;;;;;;;;;;;;;;26.11;47.90;99102.88;4274183;33;34207;-74
2023/09/22 02:01:19;;;;;;;;;;;;;;;26.56;46.71;99099.72;4271958;33;32498;-74
2023/09/22 02:03:47;;;;;;;;;;;;;;;26.48;46.76;99098.19;4276435;33;34766;-73
2023/09/22 02:06:15;;;;;;;;;;;;;;;26.99;45.66;99091.25;4275262;33;34757;-74
2023/09/22 02:08:43;;;;;;;;;;;;;;;26.93;45.78;99096.78;4275204;33;34345;-73
2023/09/22 02:11:11;;;;;;;;;;;;;;;26.81;46.12;99091.84;4274578;33;33343;-73
2023/09/22 02:13:40;;;;;;;;;;;;;;;26.88;45.81;99091.59;4275983;33;33945;-74
2023/09/22 02:16:07;;;;;;;;;;;;;;;26.56;46.53;99097.06;4276625;33;33909;-74
2023/09/22 02:18:35;;;;;;;;;;;;;;;26.23;47.44;99092.78;4265757;33;34112;-74
2023/09/22 02:21:06;;;;;;;;;;;;;;;26.37;47.12;99100.31;4272270;33;32399;-73
2023/09/22 02:23:33;;;;;;;;;;;;;;;26.64;46.69;99103.06;4276109;33;33001;-74
2023/09/22 02:26:05;;;;;;;;;;;;;;;26.70;46.24;99096.69;4273271;33;34253;-73
2023/09/22 02:28:32;;;;;;;;;;;;;;;26.35;46.91;99090.62;4276438;33;34445;-73
2023/09/22 02:31:00;;;;;;;;;;;;;;;27.08;45.22;99092.72;4274815;33;33960;-74
2023/09/22 02:33:29;;;;;;;;;;;;;;;26.23;47.20;99091.88;4277720;33;34331;-73
2023/09/22 02:35:58;;;;;;;;;;;;;;;26.35;47.03;99082.66;4275751;33;35667;-74
2023/09/22 02:38:26;;;;;;;;;;;;;;;26.35;47.26;99080.91;4272146;33;32551;-73
2023/09/22 02:40:54;;;;;;;;;;;;;;;26.08;47.85;99078.19;4272870;33;33252;-74
2023/09/22 02:43:21;;;;;;;;;;;;;;;26.39;46.87;99082.53;4275498;33;34154;-74
2023/09/22 02:45:50;;;;;;;;;;;;;;;26.21;47.33;99072.47;4275300;33;34266;-74
2023/09/22 02:48:20;;;;;;;;;;;;;;;26.24;47.31;99072.41;4274340;33;34615;-74
2023/09/22 02:50:49;;;;;;;;;;;;;;;25.84;48.49;99061.16;4273059;33;33694;-73
2023/09/22 02:53:16;;;;;;;;;;;;;;;26.52;46.88;99074.19;4274353;33;34972;-73
2023/09/22 02:55:43;;;;;;;;;;;;;;;26.16;47.75;99069.13;4275374;33;34389;-73
2023/09/22 02:58:11;;;;;;;;;;;;;;;26.23;47.62;99073.31;4276544;33;34546;-74
2023/09/22 03:00:43;;;;;;;;;;;;;;;26.46;46.89;99073.47;4274361;33;33537;-73
2023/09/22 03:03:14;;;;;;;;;;;;;;;25.90;48.09;99070.72;4262988;33;34795;-73
2023/09/22 03:05:42;;;;;;;;;;;;;;;26.28;47.18;99074.03;4263325;33;33732;-74
2023/09/22 03:08:09;;;;;;;;;;;;;;;26.57;46.17;99074.91;4274847;33;33845;-74
2023/09/22 03:10:40;;;;;;;;;;;;;;;26.02;47.67;99070.41;4274926;33;33432;-74
2023/09/22 03:13:08;;;;;;;;;;;;;;;26.15;47.35;99068.22;4278956;33;33281;-74
2023/09/22 03:15:35;;;;;;;;;;;;;;;26.23;47.07;99070.66;4275887;33;32874;-74
2023/09/22 03:18:04;;;;;;;;;;;;;;;26.38;46.74;99064.84;4274902;33;33527;-73
2023/09/22 03:20:31;;;;;;;;;;;;;;;27.25;44.74;99058.50;4272881;33;32842;-73
2023/09/22 03:23:00;;;;;;;;;;;;;;;26.31;46.86;99065.09;4274950;33;33848;-74
2023/09/22 03:25:27;;;;;;;;;;;;;;;26.03;47.55;99061.50;4259272;33;32605;-73
2023/09/22 03:27:54;;;;;;;;;;;;;;;26.35;47.01;99062.31;4274686;33;34431;-74
2023/09/22 03:30:22;;;;;;;;;;;;;;;26.31;47.22;99066.00;4274216;33;34109;-73
2023/09/22 03:32:52;;;;;;;;;;;;;;;26.17;47.45;99063.75;4276362;33;34098;-73
2023/09/22 03:35:21;;;;;;;;;;;;;;;26.24;47.36;99064.44;4277386;33;32849;-73
2023/09/22 03:37:48;;;;;;;;;;;;;;;26.05;47.83;99067.62;4276715;33;34134;-73
2023/09/22 03:40:22;;;;;;;;;;;;;;;25.11;50.08;99072.88;4273454;33;33629;-74
2023/09/22 03:42:50;;;;;;;;;;;;;;;25.65;48.89;99071.44;4275532;33;34222;-74
2023/09/22 03:45:18;;;;;;;;;;;;;;;26.06;47.86;99064.09;4273364;33;34002;-74
2023/09/22 03:47:47;;;;;;;;;;;;;;;26.15;47.88;99062.06;4278461;33;34435;-73
2023/09/22 03:50:14;;;;;;;;;;;;;;;26.38;47.43;99061.34;4273889;33;33616;-74
2023/09/22 03:52:42;;;;;;;;;;;;;;;26.04;48.18;99068.56;4274163;33;34670;-74
2023/09/22 03:55:10;;;;;;;;;;;;;;;26.18;48.07;99054.00;4270936;33;34845;-74
2023/09/22 03:57:37;;;;;;;;;;;;;;;25.55;49.62;99066.44;4276059;33;33825;-74
2023/09/22 04:00:08;;;;;;;;;;;;;;;26.13;48.10;99047.97;4272878;33;34234;-74
2023/09/22 04:02:39;;;;;;;;;;;;;;;25.87;48.78;99068.19;4276351;33;34758;-74
2023/09/22 04:05:07;;;;;;;;;;;;;;;26.72;46.57;99053.19;4276341;33;33760;-73
2023/09/22 04:07:35;;;;;;;;;;;;;;;26.09;48.16;99058.66;4277040;33;34558;-74
2023/09/22 04:10:03;;;;;;;;;;;;;;;26.03;47.96;99063.31;4274648;33;33174;-73
2023/09/22 04:12:31;;;;;;;;;;;;;;;25.78;48.73;99060.47;4275380;33;34235;-74
2023/09/22 04:14:59;;;;;;;;;;;;;;;25.34;49.90;99067.91;4275285;33;34301;-73
2023/09/22 04:17:27;;;;;;;;;;;;;;;25.64;48.89;99067.03;4275044;33;34716;-73
2023/09/22 04:19:55;;;;;;;;;;;;;;;25.45;49.58;99071.13;4276202;33;33405;-73
2023/09/22 04:22:22;;;;;;;;;;;;;;;25.34;49.88;99078.50;4277146;33;34817;-73
2023/09/22 04:24:59;;;;;;;;;;;;;;;25.70;48.97;99072.16;4273659;33;34233;-74
2023/09/22 04:27:32;;;;;;;;;;;;;;;25.68;49.21;99073.13;4274528;33;34259;-74
2023/09/22 04:30:00;;;;;;;;;;;;;;;26.05;48.25;99069.44;4273679;33;34334;-74
2023/09/22 04:32:33;;;;;;;;;;;;;;;25.49;49.58;99075.44;4275137;33;34904;-73
2023/09/22 04:35:00;;;;;;;;;;;;;;;25.06;51.09;99073.91;4275890;33;33936;-74
2023/09/22 04:37:28;;;;;;;;;;;;;;;25.17;50.91;99077.16;4276016;33;34321;-74
2023/09/22 04:39:55;;;;;;;;;;;;;;;25.04;51.27;99081.03;4270479;33;33331;-74
2023/09/22 04:42:23;;;;;;;;;;;;;;;25.13;50.89;99080.78;4274565;33;35050;-74
2023/09/22 04:44:50;;;;;;;;;;;;;;;25.24;50.93;99086.69;4273817;33;34397;-74
2023/09/22 04:47:18;;;;;;;;;;;;;;;24.90;51.71;99090.19;4274082;33;35190;-73
2023/09/22 04:49:46;;;;;;;;;;;;;;;25.99;49.05;99091.72;4275867;33;33466;-73
2023/09/22 04:52:13;;;;;;;;;;;;;;;26.33;48.21;99082.75;4274155;33;35362;-74
2023/09/22 04:54:41;;;;;;;;;;;;;;;26.15;48.34;99094.78;4273909;33;34238;-73
2023/09/22 04:57:08;;;;;;;;;;;;;;;25.21;50.84;99097.34;4272263;33;34866;-73
2023/09/22 04:59:35;;;;;;;;;;;;;;;26.22;48.26;99096.34;4275085;33;34194;-74
2023/09/22 05:02:04;;;;;;;;;;;;;;;25.47;50.38;99093.16;4274169;33;33948;-74
2023/09/22 05:04:31;;;;;;;;;;;;;;;26.00;49.01;99093.47;4274525;33;34092;-74
2023/09/22 05:07:00;;;;;;;;;;;;;;;25.70;49.96;99093.37;4266523;33;34853;-74
2023/09/22 05:09:28;;;;;;;;;;;;;;;26.44;47.97;99101.87;4276235;33;33602;-73
2023/09/22 05:11:55;;;;;;;;;;;;;;;26.25;48.67;99100.66;4273641;33;33532;-73
2023/09/22 05:14:23;;;;;;;;;;;;;;;26.26;48.46;99103.28;4271867;33;32963;-73
2023/09/22 05:16:50;;;;;;;;;;;;;;;26.45;48.17;99103.59;4274740;33;34865;-74
2023/09/22 05:19:18;;;;;;;;;;;;;;;26.29;48.61;99112.97;4270938;33;33125;-75
2023/09/22 05:21:45;;;;;;;;;;;;;;;26.21;48.94;99109.66;4270567;33;33986;-74
2023/09/22 05:24:13;;;;;;;;;;;;;;;25.77;49.83;99103.81;4272053;33;33629;-75
2023/09/22 05:26:40;;;;;;;;;;;;;;;26.09;49.33;99111.75;4262440;33;34352;-75
2023/09/22 05:29:08;;;;;;;;;;;;;;;26.39;48.50;99095.81;4274251;33;33166;-75
2023/09/22 05:31:36;;;;;;;;;;;;;;;26.68;47.39;99099.38;4275662;33;34951;-75
2023/09/22 05:34:04;;;;;;;;;;;;;;;26.58;48.11;99095.22;4274555;33;32245;-75
2023/09/22 05:36:33;;;;;;;;;;;;;;;26.33;48.78;99095.13;4275696;33;34273;-76
2023/09/22 05:39:02;;;;;;;;;;;;;;;26.35;48.68;99096.84;4279691;33;33494;-74
2023/09/22 05:41:29;;;;;;;;;;;;;;;25.90;49.99;99094.59;4274323;33;34050;-75
2023/09/22 05:43:57;;;;;;;;;;;;;;;26.15;49.37;99097.44;4275135;33;34666;-75
2023/09/22 05:46:24;;;;;;;;;;;;;;;26.64;48.10;99090.62;4276457;33;34421;-75
2023/09/22 05:48:52;;;;;;;;;;;;;;;26.68;48.16;99102.03;4279031;33;33043;-73
2023/09/22 05:51:20;;;;;;;;;;;;;;;26.68;48.06;99104.69;4277911;33;34539;-74
2023/09/22 05:53:47;;;;;;;;;;;;;;;26.97;47.64;99102.88;4279076;33;34778;-76
2023/09/22 05:56:15;;;;;;;;;;;;;;;26.68;48.56;99102.91;4274060;33;34226;-78
2023/09/22 05:58:43;;;;;;;;;;;;;;;26.84;48.32;99105.91;4274845;33;33626;-76
2023/09/22 06:01:11;;;;;;;;;;;;;;;26.47;49.32;99109.72;4274498;33;34011;-77
2023/09/22 06:03:40;;;;;;;;;;;;;;;26.84;48.60;99116.53;4275668;33;35341;-75
2023/09/22 06:06:11;;;;;;;;;;;;;;;27.02;47.98;99114.19;4277461;33;32994;-76
2023/09/22 06:08:39;;;;;;;;;;;;;;;27.00;48.11;99111.59;4274926;33;32873;-75
2023/09/22 06:11:07;;;;;;;;;;;;;;;27.16;48.00;99114.63;4265215;33;33807;-77
2023/09/22 06:13:34;;;;;;;;;;;;;;;27.34;47.80;99114.94;4269527;33;34203;-75
2023/09/22 06:16:02;;;;;;;;;;;;;;;27.14;47.92;99119.13;4276395;33;34570;-75
2023/09/22 06:18:30;;;;;;;;;;;;;;;26.73;49.26;99118.69;4282435;33;33715;-76
2023/09/22 06:20:59;;;;;;;;;;;;;;;27.81;46.79;99121.19;4278857;33;34264;-75
2023/09/22 06:23:27;;;;;;;;;;;;;;;26.76;49.28;99123.91;4286957;33;34201;-76
2023/09/22 06:26:00;;;;;;;;;;;;;;;27.52;47.67;99122.25;4263841;33;33889;-77
2023/09/22 06:28:27;;;;;;;;;;;;;;;27.40;48.47;99125.34;4278686;33;33651;-76
2023/09/22 06:30:58;;;;;;;;;;;;;;;27.16;48.91;99122.59;4275432;33;34784;-75
2023/09/22 06:33:27;;;;;;;;;;;;;;;27.85;47.26;99116.63;4265676;33;34988;-75
2023/09/22 06:35:55;;;;;;;;;;;;;;;27.63;47.58;99127.19;4253508;33;33587;-75
2023/09/22 06:38:23;;;;;;;;;;;;;;;27.55;48.00;99129.28;4284375;33;34056;-74
2023/09/22 06:40:54;;;;;;;;;;;;;;;27.38;48.36;99137.84;4284000;33;34857;-74
2023/09/22 06:43:25;;;;;;;;;;;;;;;27.72;47.22;99124.22;4288106;33;33991;-75
2023/09/22 06:45:56;;;;;;;;;;;;;;;27.05;48.62;99132.72;4267060;33;34342;-74
2023/09/22 06:48:26;;;;;;;;;;;;;;;27.61;47.56;99140.56;4283319;33;32587;-75
2023/09/22 06:50:54;;;;;;;;;;;;;;;28.02;46.81;99134.69;4283648;33;32800;-73
2023/09/22 06:53:21;;;;;;;;;;;;;;;27.88;46.82;99134.31;4289908;33;33805;-74
2023/09/22 06:55:49;;;;;;;;;;;;;;;28.30;45.55;99134.50;4277984;33;35172;-74
2023/09/22 06:58:16;;;;;;;;;;;;;;;28.22;45.84;99131.25;4281581;33;33566;-74
2023/09/22 07:00:43;;;;;;;;;;;;;;;28.27;45.85;99134.63;4273365;33;34231;-74
2023/09/22 07:03:11;;;;;;;;;;;;;;;28.61;45.13;99133.34;4286070;33;35015;-74
2023/09/22 07:05:39;;;;;;;;;;;;;;;28.66;45.12;99135.81;4277870;33;35058;-74
2023/09/22 07:08:06;;;;;;;;;;;;;;;28.50;45.46;99143.53;4278707;33;33010;-74
2023/09/22 07:10:35;;;;;;;;;;;;;;;27.96;46.75;99146.41;4289828;33;34205;-74
2023/09/22 07:13:02;;;;;;;;;;;;;;;28.64;45.35;99149.19;4274317;33;33972;-74
2023/09/22 07:15:29;;;;;;;;;;;;;;;28.56;45.23;99140.66;4289390;33;34035;-74
2023/09/22 07:17:57;;;;;;;;;;;;;;;28.94;44.39;99155.09;4266806;33;34459;-74
2023/09/22 07:20:24;;;;;;;;;;;;;;;28.66;45.00;99144.66;4281362;33;34158;-75
2023/09/22 07:23:03;;;;;;;;;;;;;;;28.71;44.91;99145.38;4281181;33;34556;-74
2023/09/22 07:25:31;;;;;;;;;;;;;;;28.61;45.17;99154.66;4274096;33;33959;-74
2023/09/22 07:27:59;;;;;;;;;;;;;;;28.79;44.52;99145.91;4274084;33;32844;-74
2023/09/22 07:30:28;;;;;;;;;;;;;;;28.64;44.89;99143.88;4275194;33;34041;-74
2023/09/22 07:32:56;;;;;;;;;;;;;;;28.60;45.07;99142.25;4274675;33;33574;-74
2023/09/22 07:35:24;;;;;;;;;;;;;;;28.92;44.32;99153.44;4274881;33;35226;-75
2023/09/22 07:37:51;;;;;;;;;;;;;;;28.92;43.81;99150.75;4260854;33;31926;-74
2023/09/22 07:40:19;;;;;;;;;;;;;;;28.88;44.14;99163.34;4284225;33;34174;-74
2023/09/22 07:42:46;;;;;;;;;;;;;;;28.82;44.78;99161.78;4275142;33;34796;-74
2023/09/22 07:45:14;;;;;;;;;;;;;;;29.16;44.27;99160.44;4272001;33;34492;-74
2023/09/22 07:47:41;;;;;;;;;;;;;;;29.21;44.26;99166.44;4273147;33;33189;-75
2023/09/22 07:50:09;;;;;;;;;;;;;;;28.94;44.38;99172.91;4273666;33;34397;-74
2023/09/22 07:52:36;;;;;;;;;;;;;;;28.33;45.67;99170.81;4273431;33;34303;-74
2023/09/22 07:55:05;;;;;;;;;;;;;;;29.48;42.99;99168.88;4274734;33;34887;-74
2023/09/22 07:57:35;;;;;;;;;;;;;;;29.30;43.48;99164.31;4273097;33;32874;-74
2023/09/22 08:00:03;;;;;;;;;;;;;;;29.17;44.10;99167.50;4270236;33;34178;-74
2023/09/22 08:02:37;;;;;;;;;;;;;;;29.23;43.57;99160.19;4275256;33;34129;-74
2023/09/22 08:05:05;;;;;;;;;;;;;;;29.17;43.81;99164.84;4274813;33;35188;-74
2023/09/22 08:07:32;;;;;;;;;;;;;;;29.41;43.06;99173.59;4273687;33;33732;-74
2023/09/22 08:10:00;;;;;;;;;;;;;;;29.28;43.71;99171.50;4273864;33;33708;-74
2023/09/22 08:12:28;;;;;;;;;;;;;;;28.90;44.17;99166.81;4274392;33;34760;-74
2023/09/22 08:14:57;;;;;;;;;;;;;;;29.12;44.25;99171.25;4272135;33;35289;-74
2023/09/22 08:17:25;;;;;;;;;;;;;;;29.12;44.27;99169.50;4271445;33;33151;-74
2023/09/22 08:19:53;;;;;;;;;;;;;;;29.70;42.94;99181.28;4259425;33;34972;-74
2023/09/22 08:22:20;;;;;;;;;;;;;;;29.41;43.61;99178.06;4265725;33;33879;-74
2023/09/22 08:24:48;;;;;;;;;;;;;;;29.88;42.92;99169.84;4261976;33;33556;-74
2023/09/22 08:27:16;;;;;;;;;;;;;;;29.82;42.88;99162.09;4274646;33;33559;-74
2023/09/22 08:29:43;;;;;;;;;;;;;;;30.29;42.30;99177.78;4273110;33;35174;-75
2023/09/22 08:32:11;;;;;;;;;;;;;;;30.18;41.99;99164.03;4262470;33;34876;-74
2023/09/22 08:34:38;;;;;;;;;;;;;;;30.57;41.36;99171.16;4276830;33;34310;-75
2023/09/22 08:37:06;;;;;;;;;;;;;;;30.61;40.40;99172.75;4277382;33;34307;-75
2023/09/22 08:39:33;;;;;;;;;;;;;;;30.34;41.42;99177.59;4263937;33;33934;-75
2023/09/22 08:42:01;;;;;;;;;;;;;;;30.60;41.57;99176.38;4255660;33;34080;-74
2023/09/22 08:44:29;;;;;;;;;;;;;;;31.13;38.94;99172.91;4251021;33;33773;-74
2023/09/22 08:46:57;;;;;;;;;;;;;;;31.33;39.77;99177.28;4268183;33;33435;-74
2023/09/22 08:49:26;;;;;;;;;;;;;;;31.76;38.84;99174.22;4276832;33;34869;-75
2023/09/22 08:51:53;;;;;;;;;;;;;;;32.60;37.70;99166.12;4269387;33;34884;-74
2023/09/22 08:54:21;;;;;;;;;;;;;;;32.59;37.13;99168.91;4276360;33;34445;-74
2023/09/22 08:56:49;;;;;;;;;;;;;;;32.63;36.34;99167.81;4276902;33;34363;-74
2023/09/22 08:59:16;;;;;;;;;;;;;;;32.45;36.89;99167.84;4270452;33;33832;-75
2023/09/22 09:01:43;;;;;;;;;;;;;;;32.87;36.50;99169.06;4285829;33;33787;-75
2023/09/22 09:04:33;;;;;;;;;;;;;;;32.77;36.25;99167.00;4279259;33;35091;-75
2023/09/22 09:07:04;;;;;;;;;;;;;;;33.12;36.15;99164.16;4279364;33;33326;-75
2023/09/22 09:09:39;;;;;;;;;;;;;;;33.30;35.81;99171.09;4280958;33;33967;-74
2023/09/22 09:12:08;;;;;;;;;;;;;;;33.07;35.04;99153.63;4271928;33;34522;-75
2023/09/22 09:14:37;;;;;;;;;;;;;;;33.77;34.73;99148.63;4268644;33;35712;-75
2023/09/22 09:17:21;;;;;;;;;;;;;;;33.44;34.67;99146.13;4282130;33;33655;-74
2023/09/22 09:19:56;;;;;;;;;;;;;;;34.12;34.44;99150.94;4269609;33;34252;-75
2023/09/22 09:22:35;;;;;;;;;;;;;;;34.52;33.67;99153.81;4267653;33;34713;-75
2023/09/22 09:25:03;;;;;;;;;;;;;;;34.95;32.24;99151.00;4279427;33;34413;-75
2023/09/22 09:27:31;;;;;;;;;;;;;;;35.96;29.71;99150.47;4279271;33;33215;-75
2023/09/22 09:29:58;;;;;;;;;;;;;;;35.98;30.40;99135.06;4276686;33;34824;-75
2023/09/22 09:32:26;;;;;;;;;;;;;;;35.82;29.42;99144.22;4271929;33;33939;-75
2023/09/22 09:34:54;;;;;;;;;;;;;;;35.68;30.21;99141.66;4268917;33;34513;-75
2023/09/22 09:37:21;;;;;;;;;;;;;;;35.67;30.19;99129.12;4269189;33;34112;-74
2023/09/22 09:39:51;;;;;;;;;;;;;;;35.37;29.65;99132.97;4272364;33;36062;-75
2023/09/22 09:42:19;;;;;;;;;;;;;;;35.20;30.15;99125.19;4276455;33;34717;-74
2023/09/22 09:44:54;;;;;;;;;;;;;;;35.55;29.42;99129.97;4280663;33;34037;-75
2023/09/22 09:47:23;;;;;;;;;;;;;;;35.50;29.52;99132.13;4272810;33;34316;-75
2023/09/22 09:49:59;;;;;;;;;;;;;;;35.35;30.18;99129.53;4273192;33;34633;-74
2023/09/22 09:52:29;;;;;;;;;;;;;;;35.40;30.29;99116.59;4280226;33;34707;-74
2023/09/22 09:55:08;;;;;;;;;;;;;;;35.69;29.42;99107.50;4276063;33;33931;-73
2023/09/22 09:57:38;;;;;;;;;;;;;;;35.74;29.70;99106.19;4276743;33;33412;-74
2023/09/22 10:00:11;;;;;;;8.20;2.22;;;;;;;35.36;29.84;99106.16;4269894;33;34273;-75
2023/09/22 10:02:58;;;;;;;;;;;;;;;36.07;28.63;99099.38;4280874;33;34524;-74
2023/09/22 10:05:25;;;;;;;;;;;;;;;36.31;27.95;99099.44;4262016;33;35231;-75
2023/09/22 10:07:56;;;;;;;;;;;;;;;35.20;29.21;99107.19;4269376;33;33507;-75
2023/09/22 10:10:23;;;;;;;;;;;;;;;35.57;29.05;99101.97;4276729;33;34711;-76
2023/09/22 10:12:51;;;;;;;;;;;;;;;35.80;29.12;99097.69;4267439;33;35306;-75
2023/09/22 10:15:47;;;;;;;;;;;;;;;36.13;28.31;99071.97;4279718;33;34486;-76
2023/09/22 10:18:17;;;;;;;7.18;2.08;;;;;;;35.60;28.94;99096.38;4271463;33;33368;-75
2023/09/22 10:20:45;;;;;;;;;;;;;;;35.33;28.88;99080.31;4254584;33;33055;-75
2023/09/22 10:23:15;;;;;;;;;;;;;;;35.72;28.57;99081.19;4234820;33;1575511;-75
2023/09/22 10:26:02;;;;;;;;;;;;;;;35.97;28.21;99087.53;4277296;33;34429;-75
2023/09/22 10:28:30;;;;;;;;;;;;;;;35.90;29.02;99083.56;4276306;33;34344;-75
2023/09/22 10:30:57;;;;;;;;;;;;;;;35.69;28.65;99086.78;4284706;33;33892;-75
2023/09/22 10:33:25;;;;;;;;;;;;;;;35.46;28.58;99080.28;4268477;33;33992;-75
2023/09/22 10:35:57;;;;;;;;;;;;;;;35.50;28.13;99079.09;4275024;33;33146;-75
2023/09/22 10:38:25;;;;;;;;;;;;;;;36.08;28.60;99078.66;4280745;33;33252;-74
2023/09/22 10:40:58;;;;;;;11.85;2.67;;;;;;;36.30;27.94;99072.63;4263707;33;34314;-75
2023/09/22 10:43:26;;;;;;;;;;;;;;;36.68;27.06;99066.22;4274658;33;33773;-77
2023/09/22 10:45:54;;;;;;;;;;;;;;;36.22;27.68;99065.94;4261837;33;33717;-78
2023/09/22 10:48:22;;;;;;;;;;;;;;;36.46;27.29;99065.09;4266028;33;32882;-75
2023/09/22 10:50:50;;;;;;;;;;;;;;;36.61;27.46;99068.50;4273296;33;34463;-74
2023/09/22 10:53:17;;;;;;;;;;;;;;;36.57;27.03;99065.16;4275482;33;34280;-79
2023/09/22 10:55:45;;;;;;;;;;;;;;;36.46;26.98;99067.78;4276494;33;34320;-74
2023/09/22 10:58:12;;;;;;;;;;;;;;;36.93;25.92;99066.06;4274459;33;34296;-77
2023/09/22 11:00:44;;;;;;;;;;;;;;;36.84;26.37;99049.72;4275633;33;35046;-73
2023/09/22 11:03:14;;;;;;;;;;;;;;;36.80;26.29;99059.91;4275406;33;34299;-77
2023/09/22 11:05:43;;;;;;;;;;;;;;;36.86;25.60;99058.56;4275360;33;34273;-76
2023/09/22 11:08:14;;;;;;;;;;;;;;;36.41;26.08;99051.06;4263728;33;34002;-75
2023/09/22 11:10:46;;;;;;;;;;;;;;;36.51;26.59;99060.22;4262372;33;33402;-74
2023/09/22 11:13:14;;;;;;;;;;;;;;;36.97;25.17;99051.38;4275509;33;34056;-75
2023/09/22 11:15:46;;;;;;;;;;;;;;;36.90;24.83;99055.53;4276695;33;34291;-77
2023/09/22 11:18:21;;;;;;;6.15;1.55;;;;;;;36.49;25.03;99059.50;4275028;33;33691;-79
2023/09/22 11:20:57;;;;;;;9.85;2.08;;;;;;;36.17;25.87;99046.53;4261871;33;33739;-78
2023/09/22 11:23:26;;;;;;;7.43;2.50;;;;;;;36.44;25.65;99048.16;4274315;33;33539;-75
2023/09/22 11:26:07;;;;;;;8.85;1.95;;;;;;;37.02;24.89;99047.47;4274990;33;34823;-77
2023/09/22 11:28:42;;;;;;;10.40;2.10;;;;;;;36.45;26.22;99043.63;4268290;33;33950;-74
2023/09/22 11:31:16;;;;;;;10.85;2.20;;;;;;;36.35;26.15;99044.31;4276388;33;33057;-75
2023/09/22 11:33:45;;;;;;;8.85;2.12;;;;;;;36.75;25.00;99041.34;4275829;33;33491;-75
2023/09/22 11:36:14;;;;;;;10.80;1.90;;;;;;;37.12;24.82;99043.91;4274420;33;34122;-74
2023/09/22 11:38:54;;;;;;;8.02;1.77;;;;;;;37.05;24.58;99047.22;4276890;33;33721;-75
2023/09/22 11:41:22;;;;;;;;;;;;;;;36.63;24.90;99036.00;4275659;33;34798;-75
2023/09/22 11:43:51;;;;;;;;;;;;;;;35.60;25.65;99052.38;4273119;33;34846;-75
2023/09/22 11:46:22;;;;;;;;;;;;;;;35.73;25.58;99042.50;4273404;33;34176;-75
2023/09/22 11:49:00;;;;;;;12.55;2.00;;;;;;;36.32;25.33;99049.94;4271363;33;34170;-75
2023/09/22 11:51:40;;;;;;;8.13;2.60;;;;;;;36.16;25.40;99055.59;4276070;33;33671;-75
2023/09/22 11:54:08;;;;;;;;;;;;;;;36.00;25.68;99050.41;4274564;33;33110;-75
2023/09/22 11:56:35;;;;;;;;;;;;;;;36.31;25.48;99048.22;4264010;33;34505;-75
2023/09/22 11:59:18;;;;;;;9.38;2.20;;;;;;;36.19;25.25;99049.97;4271760;33;33540;-75
2023/09/22 12:01:48;;;;;;;8.40;2.10;;;;;;;36.07;25.58;99045.47;4275489;33;34778;-75
2023/09/22 12:04:18;;;;;;;;;;;;;;;35.73;25.56;99042.50;4280467;33;34704;-75
2023/09/22 12:06:46;;;;;;;;;;;;;;;35.62;26.33;99061.22;4267323;33;33528;-75
2023/09/22 12:09:14;;;;;;;;;;;;;;;35.98;25.77;99057.75;4250634;33;33448;-75
2023/09/22 12:11:42;;;;;;;8.20;2.08;;;;;;;36.07;25.64;99045.47;4276583;33;34348;-75
2023/09/22 12:14:11;;;;;;;6.80;1.95;;;;;;;36.28;25.06;99050.25;4271996;33;33285;-75
2023/09/22 12:16:39;;;;;;;6.55;2.28;;;;;;;36.33;24.74;99056.19;4274862;33;34664;-75
2023/09/22 12:19:07;;;;;;;8.07;1.90;;;;;;;36.00;25.04;99054.97;4274469;33;34230;-75
2023/09/22 12:21:35;;;;;;;5.78;1.87;;;;;;;36.18;24.64;99059.06;4271936;33;34426;-74
2023/09/22 12:24:04;;;;;;;6.47;1.80;;;;;;;36.21;24.47;99066.03;4275444;33;33604;-74
2023/09/22 12:26:33;;;;;;;7.25;1.62;;;;;;;36.27;24.67;99062.03;4275122;33;34265;-75
2023/09/22 12:29:05;;;;;;;;;;;;;;;36.47;24.77;99065.94;4268456;33;33127;-74
2023/09/22 12:31:34;;;;;;;7.93;2.28;;;;;;;36.35;25.01;99062.31;4271270;33;33893;-74
2023/09/22 12:34:02;;;;;;;12.23;2.33;;;;;;;36.72;24.54;99073.97;4277472;33;33368;-74
2023/09/22 12:36:29;;;;;;;7.28;2.10;;;;;;;36.75;24.60;99067.47;4279509;33;34264;-74
2023/09/22 12:38:58;;;;;;;9.13;1.90;;;;;;;37.26;23.50;99058.22;4276005;33;34130;-75
2023/09/22 12:41:26;;;;;;;13.48;2.37;;;;;;;36.83;23.74;99061.50;4276855;33;34018;-75
2023/09/22 12:43:53;;;;;;;7.22;1.77;;;;;;;37.42;23.01;99064.16;4275940;33;33900;-74
2023/09/22 12:46:21;;;;;;;9.20;2.25;;;;;;;37.15;23.07;99059.94;4275369;33;34670;-74